createdAt,value
2019-02-05T00:01:57.964Z,79.12
2019-02-05T00:04:27.914Z,77.59
2019-02-05T00:06:57.789Z,78.03
2019-02-05T00:09:27.582Z,77.90
2019-02-05T00:11:57.446Z,77.42
2019-02-05T00:14:27.579Z,77.93
2019-02-05T00:16:57.538Z,77.44
2019-02-05T00:19:27.399Z,77.02
2019-02-05T00:21:57.264Z,76.59
2019-02-05T00:24:27.383Z,76.45
2019-02-05T00:26:57.336Z,75.91
2019-02-05T00:29:27.571Z,76.00
2019-02-05T00:31:57.576Z,75.90
2019-02-05T00:34:27.594Z,75.99
2019-02-05T00:36:57.558Z,75.38
2019-02-05T00:39:27.830Z,72.68
2019-02-05T00:41:57.956Z,71.94
2019-02-05T00:44:27.692Z,70.22
2019-02-05T00:46:57.665Z,71.25
2019-02-05T00:49:27.610Z,70.04
2019-02-05T00:51:57.433Z,68.61
2019-02-05T00:54:27.538Z,68.84
2019-02-05T00:56:57.458Z,65.02
2019-02-05T00:59:27.519Z,64.39
2019-02-05T01:01:57.298Z,65.25
2019-02-05T01:04:27.192Z,65.57
2019-02-05T01:06:57.369Z,65.87
2019-02-05T01:09:27.546Z,66.65
2019-02-05T01:11:57.357Z,66.63
2019-02-05T01:14:27.104Z,66.37
2019-02-05T01:16:56.973Z,67.08
2019-02-05T01:19:26.718Z,67.12
2019-02-05T01:21:56.682Z,66.25
2019-02-05T01:24:26.835Z,66.76
2019-02-05T01:26:56.754Z,67.63
2019-02-05T01:29:26.832Z,67.86
2019-02-05T01:31:56.841Z,67.62
2019-02-05T01:34:26.598Z,68.03
2019-02-05T01:36:56.553Z,68.38
2019-02-05T01:39:26.668Z,68.75
2019-02-05T01:41:56.786Z,69.41
2019-02-05T01:44:26.714Z,69.27
2019-02-05T01:46:56.590Z,69.36
2019-02-05T01:49:26.562Z,70.65
2019-02-05T01:51:57.138Z,72.75
2019-02-05T01:54:26.897Z,75.19
2019-02-05T01:56:56.683Z,76.51
2019-02-05T01:59:27.748Z,78.50
2019-02-05T02:01:57.625Z,78.80
2019-02-05T02:04:27.542Z,78.95
2019-02-05T02:06:57.731Z,78.60
2019-02-05T02:09:27.594Z,76.42
2019-02-05T02:11:57.623Z,75.75
2019-02-05T02:14:27.589Z,75.66
2019-02-05T02:16:57.676Z,75.63
2019-02-05T02:19:28.079Z,75.04
2019-02-05T02:21:58.030Z,75.09
2019-02-05T02:24:27.948Z,74.29
2019-02-05T02:26:58.054Z,74.10
2019-02-05T02:29:28.012Z,72.66
2019-02-05T02:31:57.901Z,71.52
2019-02-05T02:34:27.894Z,71.52
2019-02-05T02:36:57.788Z,71.59
2019-02-05T02:39:27.665Z,70.47
2019-02-05T02:41:57.681Z,70.85
2019-02-05T02:44:27.546Z,72.45
2019-02-05T02:46:57.324Z,72.19
2019-02-05T02:49:27.274Z,71.96
2019-02-05T02:51:57.087Z,72.18
2019-02-05T02:54:26.959Z,71.66
2019-02-05T02:57:04.519Z,71.45
2019-02-05T02:59:28.405Z,71.33
2019-02-05T03:01:58.547Z,72.42
2019-02-05T03:04:28.484Z,72.83
2019-02-05T03:06:58.338Z,72.43
2019-02-05T03:09:28.178Z,72.05
2019-02-05T03:11:58.208Z,71.66
2019-02-05T03:14:28.513Z,71.60
2019-02-05T03:16:58.327Z,70.96
2019-02-05T03:19:28.577Z,70.86
2019-02-05T03:21:58.352Z,71.55
2019-02-05T03:24:28.185Z,70.93
2019-02-05T03:26:58.251Z,69.95
2019-02-05T03:29:28.229Z,69.72
2019-02-05T03:31:58.127Z,68.86
2019-02-05T03:34:29.933Z,67.91
2019-02-05T03:36:59.817Z,66.00
2019-02-05T03:39:29.808Z,65.84
2019-02-05T03:41:59.680Z,65.62
2019-02-05T03:44:29.547Z,65.54
2019-02-05T03:46:59.452Z,65.56
2019-02-05T03:49:30.438Z,65.68
2019-02-05T03:52:17.280Z,64.60
2019-02-05T03:55:23.119Z,62.83
2019-02-05T03:58:18.232Z,62.38
2019-02-05T04:01:31.571Z,60.62
2019-02-05T04:04:26.888Z,61.06
2019-02-05T04:07:33.049Z,61.13
2019-02-05T04:10:47.573Z,61.44
2019-02-05T04:13:52.692Z,61.70
2019-02-05T04:17:10.385Z,61.77
2019-02-05T04:20:29.765Z,61.48
2019-02-05T04:23:43.097Z,61.61
2019-02-05T04:26:53.652Z,62.33
2019-02-05T04:30:15.501Z,61.47
2019-02-05T04:33:26.381Z,58.97
2019-02-05T04:36:28.565Z,57.40
2019-02-05T04:39:45.062Z,55.27
2019-02-05T04:42:52.165Z,54.45
2019-02-05T04:45:52.962Z,54.10
2019-02-05T04:49:22.097Z,54.74
2019-02-05T04:52:41.992Z,54.96
2019-02-05T04:55:35.678Z,55.34
2019-02-05T04:58:43.267Z,55.55
2019-02-05T05:02:02.745Z,55.52
2019-02-05T05:05:28.687Z,54.15
2019-02-05T05:08:21.010Z,51.71
2019-02-05T05:10:50.906Z,46.30
2019-02-05T05:13:20.829Z,42.10
2019-02-05T05:15:51.120Z,38.99
2019-02-05T05:18:21.036Z,36.98
2019-02-05T05:20:50.964Z,36.03
2019-02-05T05:23:21.044Z,35.93
2019-02-05T05:25:50.914Z,36.21
2019-02-05T05:28:21.426Z,36.22
2019-02-05T05:30:52.539Z,35.08
2019-02-05T05:33:22.493Z,27.48
2019-02-05T05:35:52.299Z,24.67
2019-02-05T05:38:22.168Z,21.67
2019-02-05T05:40:52.034Z,20.32
2019-02-05T05:43:21.750Z,20.48
2019-02-05T05:45:51.807Z,21.30
2019-02-05T05:48:22.040Z,21.92
2019-02-05T05:50:51.899Z,23.10
2019-02-05T05:53:21.846Z,28.14
2019-02-05T05:55:51.792Z,34.51
2019-02-05T05:58:23.415Z,38.87
2019-02-05T06:00:53.544Z,41.62
2019-02-05T06:03:23.351Z,43.10
2019-02-05T06:05:53.393Z,43.55
2019-02-05T06:08:23.689Z,44.22
2019-02-05T06:10:53.932Z,45.51
2019-02-05T06:13:23.852Z,46.34
2019-02-05T06:15:53.958Z,47.91
2019-02-05T06:18:24.002Z,50.08
2019-02-05T06:20:53.945Z,55.64
2019-02-05T06:23:23.908Z,56.72
2019-02-05T06:25:53.812Z,57.92
2019-02-05T06:28:34.356Z,62.32
2019-02-05T06:30:55.075Z,62.36
2019-02-05T06:33:25.020Z,65.75
2019-02-05T06:35:54.988Z,66.62
2019-02-05T06:38:24.822Z,65.68
2019-02-05T06:40:54.664Z,66.08
2019-02-05T06:43:25.834Z,66.73
2019-02-05T06:45:55.906Z,66.57
2019-02-05T06:48:25.716Z,67.42
2019-02-05T06:50:56.917Z,67.85
2019-02-05T06:53:26.676Z,67.88
2019-02-05T06:55:56.504Z,67.45
2019-02-05T06:58:26.570Z,69.37
2019-02-05T07:00:56.750Z,68.91
2019-02-05T07:03:26.570Z,72.89
2019-02-05T07:05:56.429Z,77.86
2019-02-05T07:08:26.386Z,77.98
2019-02-05T07:10:56.421Z,78.33
2019-02-05T07:13:26.488Z,80.73
2019-02-05T07:15:56.721Z,78.24
2019-02-05T07:18:26.806Z,79.65
2019-02-05T07:20:56.704Z,82.54
2019-02-05T07:23:28.095Z,82.72
2019-02-05T07:25:58.114Z,82.15
2019-02-05T07:28:28.107Z,82.20
2019-02-05T07:30:58.273Z,81.82
2019-02-05T07:33:28.107Z,82.38
2019-02-05T07:35:57.933Z,82.53
2019-02-05T07:38:27.739Z,82.16
2019-02-05T07:40:57.909Z,82.97
2019-02-05T07:43:27.875Z,86.06
2019-02-05T07:45:57.980Z,86.95
2019-02-05T07:48:30.428Z,80.09
2019-02-05T07:50:59.797Z,82.39
2019-02-05T07:53:33.049Z,82.85
2019-02-05T07:56:01.505Z,84.46
2019-02-05T07:58:31.535Z,83.05
2019-02-05T08:01:01.499Z,86.11
2019-02-05T08:03:31.812Z,84.25
2019-02-05T08:06:01.664Z,84.73
2019-02-05T08:08:31.711Z,87.48
2019-02-05T08:11:01.744Z,88.91
2019-02-05T08:13:31.654Z,89.52
2019-02-05T08:16:01.648Z,89.21
2019-02-05T08:18:31.526Z,89.08
2019-02-05T08:21:02.598Z,89.04
2019-02-05T08:23:32.604Z,85.89
2019-02-05T08:26:02.312Z,88.35
2019-02-05T08:28:40.641Z,88.42
2019-02-05T08:31:04.114Z,88.69
2019-02-05T08:33:33.910Z,89.00
2019-02-05T08:36:03.872Z,88.63
2019-02-05T08:38:33.882Z,88.89
2019-02-05T08:41:03.659Z,88.82
2019-02-05T08:43:33.420Z,88.51
2019-02-05T08:46:03.499Z,87.58
2019-02-05T08:48:33.310Z,87.95
2019-02-05T08:51:03.173Z,87.98
2019-02-05T08:53:33.252Z,87.12
2019-02-05T08:56:03.261Z,83.74
2019-02-05T08:58:34.334Z,85.02
2019-02-05T09:01:04.521Z,87.19
2019-02-05T09:03:34.348Z,87.92
2019-02-05T09:06:04.112Z,89.01
2019-02-05T09:08:34.324Z,88.98
2019-02-05T09:11:04.405Z,88.60
2019-02-05T09:13:34.278Z,88.27
2019-02-05T09:16:04.156Z,87.62
2019-02-05T09:18:33.967Z,86.71
2019-02-05T09:21:03.815Z,87.03
2019-02-05T09:23:33.886Z,86.88
2019-02-05T09:26:03.814Z,86.06
2019-02-05T09:28:33.812Z,85.92
2019-02-05T09:31:03.782Z,83.24
2019-02-05T09:33:33.759Z,80.01
2019-02-05T09:36:03.636Z,78.72
2019-02-05T09:38:33.478Z,82.63
2019-02-05T09:41:03.308Z,85.11
2019-02-05T09:43:33.501Z,84.08
2019-02-05T09:46:03.632Z,84.55
2019-02-05T09:48:33.601Z,85.04
2019-02-05T09:51:03.630Z,84.41
2019-02-05T09:53:33.529Z,83.34
2019-02-05T09:56:03.624Z,83.92
2019-02-05T09:58:33.857Z,82.59
2019-02-05T10:01:05.357Z,82.16
2019-02-05T10:03:35.209Z,81.78
2019-02-05T10:06:05.075Z,83.40
2019-02-05T10:08:35.152Z,81.98
2019-02-05T10:11:05.568Z,81.18
2019-02-05T10:13:35.434Z,80.81
2019-02-05T10:16:05.910Z,81.77
2019-02-05T10:18:35.745Z,80.59
2019-02-05T10:21:06.115Z,79.94
2019-02-05T10:23:36.086Z,79.86
2019-02-05T10:26:06.624Z,79.07
2019-02-05T10:28:36.580Z,79.76
2019-02-05T10:31:06.534Z,77.89
2019-02-05T10:33:36.275Z,76.86
2019-02-05T10:36:06.922Z,76.67
2019-02-05T10:38:36.820Z,75.71
2019-02-05T10:41:07.116Z,74.44
2019-02-05T10:43:38.320Z,73.76
2019-02-05T10:46:09.929Z,73.18
2019-02-05T10:48:39.745Z,72.91
2019-02-05T10:51:09.902Z,73.20
2019-02-05T10:53:39.804Z,73.23
2019-02-05T10:56:09.811Z,73.40
2019-02-05T10:58:39.742Z,73.97
2019-02-05T11:01:09.577Z,74.44
2019-02-05T11:03:39.369Z,74.85
2019-02-05T11:06:09.123Z,74.27
2019-02-05T11:08:38.985Z,73.96
2019-02-05T11:11:08.803Z,74.85
2019-02-05T11:13:38.567Z,74.52
2019-02-05T11:16:08.449Z,74.62
2019-02-05T11:18:38.383Z,75.09
2019-02-05T11:21:08.345Z,75.47
2019-02-05T11:23:39.557Z,75.94
2019-02-05T11:26:09.534Z,75.72
2019-02-05T11:28:39.545Z,75.99
2019-02-05T11:31:10.715Z,76.66
2019-02-05T11:33:40.620Z,76.92
2019-02-05T11:36:11.978Z,77.13
2019-02-05T11:38:41.970Z,77.06
2019-02-05T11:41:13.709Z,76.07
2019-02-05T11:43:43.808Z,76.30
2019-02-05T11:46:13.732Z,76.45
2019-02-05T11:48:43.588Z,77.17
2019-02-05T11:51:13.543Z,76.20
2019-02-05T11:53:43.627Z,76.61
2019-02-05T11:56:13.343Z,76.77
2019-02-05T11:58:43.500Z,75.78
2019-02-05T12:01:20.617Z,75.49
2019-02-05T12:03:50.598Z,75.10
2019-02-05T12:06:20.608Z,74.86
2019-02-05T12:08:50.371Z,74.83
2019-02-05T12:11:20.408Z,74.37
2019-02-05T12:13:50.456Z,75.03
2019-02-05T12:16:20.425Z,75.02
2019-02-05T12:18:50.296Z,74.88
2019-02-05T12:21:20.095Z,74.71
2019-02-05T12:23:49.892Z,75.24
2019-02-05T12:26:19.740Z,74.51
2019-02-05T12:28:49.971Z,74.31
2019-02-05T12:31:19.921Z,74.53
2019-02-05T12:33:49.786Z,74.09
2019-02-05T12:36:19.603Z,73.72
2019-02-05T12:38:49.477Z,72.57
2019-02-05T12:41:19.449Z,73.03
2019-02-05T12:43:49.664Z,73.69
2019-02-05T12:46:19.613Z,73.21
2019-02-05T12:48:49.643Z,73.15
2019-02-05T12:51:19.840Z,72.92
2019-02-05T12:53:49.650Z,73.47
2019-02-05T12:56:19.647Z,74.35
2019-02-05T12:58:50.034Z,76.22
2019-02-05T13:01:19.911Z,78.16
2019-02-05T13:03:49.750Z,79.59
2019-02-05T13:06:19.736Z,81.50
2019-02-05T13:08:49.649Z,82.62
2019-02-05T13:11:19.733Z,84.11
2019-02-05T13:13:49.598Z,84.74
2019-02-05T13:16:19.632Z,84.89
2019-02-05T13:18:51.889Z,85.11
2019-02-05T13:21:21.288Z,86.14
2019-02-05T13:23:51.006Z,86.64
2019-02-05T13:26:20.874Z,86.96
2019-02-05T13:28:50.730Z,87.06
2019-02-05T13:31:20.531Z,87.07
2019-02-05T13:33:50.392Z,87.16
2019-02-05T13:36:22.643Z,86.53
2019-02-05T13:38:53.557Z,86.26
2019-02-05T13:41:24.847Z,86.35
2019-02-05T13:43:54.758Z,86.42
2019-02-05T13:46:24.549Z,86.52
2019-02-05T13:48:54.415Z,86.15
2019-02-05T13:51:24.271Z,86.25
2019-02-05T13:53:54.747Z,86.00
2019-02-05T13:56:26.612Z,85.72
2019-02-05T13:58:56.518Z,85.81
2019-02-05T14:01:26.750Z,85.48
2019-02-05T14:03:56.958Z,85.33
2019-02-05T14:06:26.904Z,85.29
2019-02-05T14:08:57.001Z,85.77
2019-02-05T14:11:26.911Z,86.16
2019-02-05T14:13:58.075Z,85.66
2019-02-05T14:16:28.092Z,84.22
2019-02-05T14:18:57.959Z,80.58
2019-02-05T14:21:27.941Z,78.20
2019-02-05T14:23:57.912Z,77.20
2019-02-05T14:26:27.811Z,75.54
2019-02-05T14:28:57.782Z,72.26
2019-02-05T14:31:31.327Z,69.87
2019-02-05T14:33:59.572Z,69.34
2019-02-05T14:36:29.834Z,71.25
2019-02-05T14:38:59.889Z,71.51
2019-02-05T14:41:29.779Z,71.39
2019-02-05T14:43:59.652Z,71.85
2019-02-05T14:46:29.492Z,71.98
2019-02-05T14:48:59.423Z,72.17
2019-02-05T14:51:29.911Z,72.65
2019-02-05T14:54:00.037Z,73.41
2019-02-05T14:56:30.914Z,73.75
2019-02-05T14:59:00.858Z,73.61
2019-02-05T15:01:30.749Z,74.27
2019-02-05T15:04:00.598Z,75.93
2019-02-05T15:06:30.520Z,76.36
2019-02-05T15:09:00.416Z,77.15
2019-02-05T15:11:30.205Z,79.33
2019-02-05T15:14:00.188Z,81.51
2019-02-05T15:16:30.366Z,82.15
2019-02-05T15:19:00.489Z,84.12
2019-02-05T15:21:30.464Z,85.95
2019-02-05T15:24:00.219Z,86.50
2019-02-05T15:26:30.148Z,86.96
2019-02-05T15:29:00.175Z,87.40
2019-02-05T15:31:30.047Z,87.24
2019-02-05T15:34:05.771Z,86.17
2019-02-05T15:36:37.654Z,85.69
2019-02-05T15:39:14.088Z,84.66
2019-02-05T15:41:44.516Z,83.62
2019-02-05T15:44:14.811Z,82.32
2019-02-05T15:46:44.812Z,81.68
2019-02-05T15:49:14.619Z,80.30
2019-02-05T15:51:44.569Z,79.55
2019-02-05T15:54:14.475Z,79.34
2019-02-05T15:56:44.375Z,78.94
2019-02-05T15:59:14.292Z,79.14
2019-02-05T16:01:44.327Z,79.74
2019-02-05T16:04:14.302Z,79.90
2019-02-05T16:06:44.216Z,81.30
2019-02-05T16:09:14.406Z,81.62
2019-02-05T16:11:44.289Z,83.33
2019-02-05T16:14:14.386Z,83.91
2019-02-05T16:16:44.628Z,83.91
2019-02-05T16:19:15.614Z,84.93
2019-02-05T16:21:45.587Z,86.34
2019-02-05T16:24:15.514Z,87.31
2019-02-05T16:26:45.916Z,87.48
2019-02-05T16:29:15.868Z,87.76
2019-02-05T16:31:45.793Z,87.82
2019-02-05T16:34:15.766Z,87.87
2019-02-05T16:36:48.550Z,87.36
2019-02-05T16:39:17.391Z,87.63
2019-02-05T16:41:47.561Z,87.29
2019-02-05T16:44:18.648Z,87.30
2019-02-05T16:46:48.693Z,87.13
2019-02-05T16:49:18.635Z,86.72
2019-02-05T16:51:48.391Z,86.49
2019-02-05T16:54:18.190Z,86.17
2019-02-05T16:56:48.149Z,85.51
2019-02-05T16:59:17.960Z,85.33
2019-02-05T17:01:48.058Z,84.86
2019-02-05T17:04:19.224Z,84.69
2019-02-05T17:06:49.466Z,84.48
2019-02-05T17:09:20.692Z,84.25
2019-02-05T17:11:52.151Z,83.88
2019-02-05T17:14:22.040Z,83.47
2019-02-05T17:16:52.006Z,83.48
2019-02-05T17:19:22.468Z,82.87
2019-02-05T17:21:52.403Z,82.47
2019-02-05T17:24:22.219Z,82.67
2019-02-05T17:26:51.996Z,81.90
2019-02-05T17:29:22.068Z,81.81
2019-02-05T17:31:52.117Z,82.18
2019-02-05T17:34:21.998Z,82.48
2019-02-05T17:36:51.947Z,82.16
2019-02-05T17:39:21.794Z,81.77
2019-02-05T17:41:51.971Z,81.83
2019-02-05T17:44:21.873Z,81.80
2019-02-05T17:46:51.811Z,81.90
2019-02-05T17:49:21.814Z,82.04
2019-02-05T17:51:52.362Z,82.24
2019-02-05T17:54:22.401Z,82.26
2019-02-05T17:56:52.378Z,82.31
2019-02-05T17:59:22.536Z,81.92
2019-02-05T18:01:52.695Z,82.12
2019-02-05T18:04:22.539Z,82.30
2019-02-05T18:06:52.539Z,81.58
2019-02-05T18:09:22.414Z,81.60
2019-02-05T18:11:52.405Z,81.31
2019-02-05T18:14:22.210Z,81.94
2019-02-05T18:16:53.455Z,82.20
2019-02-05T18:19:23.371Z,81.81
2019-02-05T18:21:53.284Z,81.58
2019-02-05T18:24:23.224Z,81.49
2019-02-05T18:26:53.219Z,81.11
2019-02-05T18:29:23.008Z,81.51
2019-02-05T18:31:52.859Z,81.54
2019-02-05T18:34:23.093Z,82.36
2019-02-05T18:36:53.129Z,82.74
2019-02-05T18:39:23.030Z,82.72
2019-02-05T18:41:53.255Z,82.30
2019-02-05T18:44:23.088Z,82.60
2019-02-05T18:46:53.118Z,83.16
2019-02-05T18:49:22.979Z,83.98
2019-02-05T18:51:52.829Z,84.00
2019-02-05T18:54:22.768Z,83.94
2019-02-05T18:56:52.611Z,84.59
2019-02-05T18:59:22.372Z,85.03
2019-02-05T19:01:52.605Z,85.34
2019-02-05T19:04:22.688Z,85.92
2019-02-05T19:06:52.693Z,85.83
2019-02-05T19:09:22.703Z,85.71
2019-02-05T19:11:52.533Z,85.26
2019-02-05T19:14:23.270Z,85.58
2019-02-05T19:16:53.682Z,85.90
2019-02-05T19:19:23.512Z,85.50
2019-02-05T19:21:53.327Z,85.44
2019-02-05T19:24:36.441Z,85.63
2019-02-05T19:27:06.353Z,85.94
2019-02-05T19:29:36.493Z,86.21
2019-02-05T19:32:06.584Z,85.62
2019-02-05T19:34:36.486Z,85.44
2019-02-05T19:37:06.686Z,85.25
2019-02-05T19:39:37.823Z,85.32
2019-02-05T19:42:09.188Z,85.41
2019-02-05T19:44:40.721Z,85.78
2019-02-05T19:47:19.597Z,85.77
2019-02-05T19:49:53.286Z,85.50
2019-02-05T19:52:23.299Z,85.49
2019-02-05T19:54:53.189Z,85.47
2019-02-05T19:57:23.169Z,85.61
2019-02-05T19:59:53.655Z,85.31
2019-02-05T20:02:23.433Z,85.16
2019-02-05T20:04:53.457Z,85.31
2019-02-05T20:07:23.413Z,85.90
2019-02-05T20:09:53.281Z,86.02
2019-02-05T20:12:23.208Z,86.23
2019-02-05T20:14:54.359Z,86.08
2019-02-05T20:17:25.539Z,86.06
2019-02-05T20:19:55.493Z,85.92
2019-02-05T20:22:25.412Z,85.93
2019-02-05T20:24:55.402Z,85.74
2019-02-05T20:27:27.729Z,85.48
2019-02-05T20:29:57.747Z,85.19
2019-02-05T20:32:28.262Z,85.54
2019-02-05T20:34:58.091Z,85.21
2019-02-05T20:37:28.266Z,84.95
2019-02-05T20:39:58.519Z,84.91
2019-02-05T20:42:28.777Z,84.99
2019-02-05T20:44:59.025Z,85.16
2019-02-05T20:47:29.006Z,85.31
2019-02-05T20:49:58.903Z,85.59
2019-02-05T20:52:29.006Z,85.30
2019-02-05T20:54:58.846Z,85.75
2019-02-05T20:57:29.816Z,85.63
2019-02-05T20:59:59.833Z,85.58
2019-02-05T21:02:29.647Z,85.74
2019-02-05T21:04:59.582Z,85.77
2019-02-05T21:07:29.674Z,86.08
2019-02-05T21:09:59.565Z,86.40
2019-02-05T21:12:30.657Z,86.81
2019-02-05T21:15:00.562Z,86.90
2019-02-05T21:17:30.342Z,86.64
2019-02-05T21:20:00.345Z,86.57
2019-02-05T21:22:30.238Z,86.37
2019-02-05T21:25:00.128Z,86.30
2019-02-05T21:27:30.672Z,86.21
2019-02-05T21:30:00.662Z,85.49
2019-02-05T21:32:30.563Z,85.28
2019-02-05T21:35:00.437Z,85.55
2019-02-05T21:37:30.466Z,85.41
2019-02-05T21:40:02.530Z,85.59
2019-02-05T21:42:32.010Z,85.59
2019-02-05T21:45:01.894Z,85.30
2019-02-05T21:47:33.273Z,84.79
2019-02-05T21:50:03.495Z,84.87
2019-02-05T21:52:33.409Z,84.21
2019-02-05T21:55:03.412Z,84.05
2019-02-05T21:57:33.292Z,83.78
2019-02-05T22:00:11.717Z,83.67
2019-02-05T22:02:41.757Z,83.39
2019-02-05T22:05:11.916Z,83.91
2019-02-05T22:07:41.921Z,83.69
2019-02-05T22:10:12.082Z,83.68
2019-02-05T22:12:42.253Z,83.39
2019-02-05T22:15:13.287Z,83.32
2019-02-05T22:17:43.356Z,83.23
2019-02-05T22:20:15.821Z,83.18
2019-02-05T22:22:46.951Z,83.41
2019-02-05T22:25:22.312Z,82.95
2019-02-05T22:27:52.236Z,82.94
2019-02-05T22:30:32.406Z,83.10
2019-02-05T22:33:02.717Z,82.95
2019-02-05T22:35:32.600Z,83.06
2019-02-05T22:38:02.488Z,83.59
2019-02-05T22:40:32.380Z,83.84
2019-02-05T22:43:02.747Z,84.07
2019-02-05T22:45:32.847Z,84.02
2019-02-05T22:48:03.451Z,84.25
2019-02-05T22:50:33.938Z,84.38
2019-02-05T22:53:04.183Z,83.99
2019-02-05T22:55:34.242Z,83.52
2019-02-05T22:58:04.387Z,83.29
2019-02-05T23:00:52.176Z,83.49
2019-02-05T23:03:25.939Z,83.45
2019-02-05T23:06:29.306Z,83.17
2019-02-05T23:09:15.152Z,83.34
2019-02-05T23:12:20.913Z,83.94
2019-02-05T23:14:54.686Z,83.86
2019-02-05T23:17:24.729Z,83.62
2019-02-05T23:19:54.664Z,83.73
2019-02-05T23:22:24.642Z,83.58
2019-02-05T23:24:54.903Z,83.86
2019-02-05T23:27:25.344Z,84.01
2019-02-05T23:29:55.128Z,84.50
2019-02-05T23:32:24.860Z,84.81
2019-02-05T23:35:02.401Z,84.82
2019-02-05T23:37:27.054Z,84.52
2019-02-05T23:39:56.832Z,84.61
2019-02-05T23:42:26.783Z,84.60
2019-02-05T23:44:56.768Z,84.44
2019-02-05T23:47:26.522Z,84.62
2019-02-05T23:49:56.446Z,84.40
2019-02-05T23:52:26.317Z,84.67
2019-02-05T23:54:56.239Z,84.21
2019-02-05T23:57:26.415Z,84.73
2019-02-05T23:59:56.392Z,85.48
